sensor_id;sensor_type;location;lat;lon;timestamp;P1;durP1;ratioP1;P2;durP2;ratioP2
83747;SDS011;73737;52.364;17.120;2024-03-06T00:31:58;38.90;;;21.20;;
83747;SDS011;73737;52.364;17.120;2024-03-06T00:34:27;33.20;;;19.60;;
83747;SDS011;73737;52.364;17.120;2024-03-06T00:36:57;36.60;;;19.20;;
83747;SDS011;73737;52.364;17.120;2024-03-06T00:39:27;34.90;;;20.50;;
83747;SDS011;73737;52.364;17.120;2024-03-06T00:41:55;33.90;;;21.60;;
83747;SDS011;73737;52.364;17.120;2024-03-06T00:44:24;29.60;;;17.20;;
83747;SDS011;73737;52.364;17.120;2024-03-06T00:46:53;34.30;;;18.00;;
83747;SDS011;73737;52.364;17.120;2024-03-06T00:49:22;26.00;;;15.20;;
83747;SDS011;73737;52.364;17.120;2024-03-06T00:51:51;24.50;;;13.40;;
83747;SDS011;73737;52.364;17.120;2024-03-06T00:54:19;29.70;;;17.50;;
83747;SDS011;73737;52.364;17.120;2024-03-06T00:56:48;34.80;;;18.90;;
83747;SDS011;73737;52.364;17.120;2024-03-06T00:59:17;25.60;;;15.20;;
83747;SDS011;73737;52.364;17.120;2024-03-06T01:01:50;33.50;;;18.50;;
83747;SDS011;73737;52.364;17.120;2024-03-06T01:04:22;37.90;;;19.30;;
83747;SDS011;73737;52.364;17.120;2024-03-06T01:06:54;33.40;;;18.90;;
83747;SDS011;73737;52.364;17.120;2024-03-06T01:09:23;32.80;;;17.80;;
83747;SDS011;73737;52.364;17.120;2024-03-06T01:11:51;34.20;;;18.80;;
83747;SDS011;73737;52.364;17.120;2024-03-06T01:14:20;31.60;;;17.70;;
83747;SDS011;73737;52.364;17.120;2024-03-06T01:16:48;30.70;;;19.60;;
83747;SDS011;73737;52.364;17.120;2024-03-06T01:19:17;32.10;;;18.80;;
83747;SDS011;73737;52.364;17.120;2024-03-06T01:21:46;32.10;;;17.40;;
83747;SDS011;73737;52.364;17.120;2024-03-06T01:24:14;30.40;;;18.40;;
83747;SDS011;73737;52.364;17.120;2024-03-06T01:26:42;30.40;;;17.20;;
83747;SDS011;73737;52.364;17.120;2024-03-06T01:29:11;30.50;;;17.90;;
83747;SDS011;73737;52.364;17.120;2024-03-06T01:31:40;31.90;;;17.90;;
83747;SDS011;73737;52.364;17.120;2024-03-06T01:34:08;33.50;;;18.60;;
83747;SDS011;73737;52.364;17.120;2024-03-06T01:36:37;32.10;;;18.20;;
83747;SDS011;73737;52.364;17.120;2024-03-06T01:39:06;30.90;;;18.00;;
83747;SDS011;73737;52.364;17.120;2024-03-06T01:41:34;28.30;;;15.80;;
83747;SDS011;73737;52.364;17.120;2024-03-06T01:44:03;30.80;;;18.30;;
83747;SDS011;73737;52.364;17.120;2024-03-06T01:46:32;34.60;;;18.50;;
83747;SDS011;73737;52.364;17.120;2024-03-06T01:49:00;30.90;;;17.10;;
83747;SDS011;73737;52.364;17.120;2024-03-06T01:51:29;31.40;;;17.10;;
83747;SDS011;73737;52.364;17.120;2024-03-06T01:53:58;31.30;;;17.20;;
83747;SDS011;73737;52.364;17.120;2024-03-06T01:56:29;29.40;;;15.40;;
83747;SDS011;73737;52.364;17.120;2024-03-06T01:59:00;28.40;;;16.10;;
83747;SDS011;73737;52.364;17.120;2024-03-06T02:01:31;31.50;;;17.80;;
83747;SDS011;73737;52.364;17.120;2024-03-06T02:04:00;30.70;;;16.60;;
83747;SDS011;73737;52.364;17.120;2024-03-06T02:06:29;28.80;;;14.60;;
83747;SDS011;73737;52.364;17.120;2024-03-06T02:08:58;34.40;;;17.00;;
83747;SDS011;73737;52.364;17.120;2024-03-06T02:11:27;29.70;;;16.10;;
83747;SDS011;73737;52.364;17.120;2024-03-06T02:13:57;26.90;;;14.90;;
83747;SDS011;73737;52.364;17.120;2024-03-06T02:16:26;28.80;;;15.40;;
83747;SDS011;73737;52.364;17.120;2024-03-06T02:18:55;27.30;;;17.20;;
83747;SDS011;73737;52.364;17.120;2024-03-06T02:21:27;28.40;;;15.80;;
83747;SDS011;73737;52.364;17.120;2024-03-06T02:23:56;33.40;;;18.90;;
83747;SDS011;73737;52.364;17.120;2024-03-06T02:26:25;31.80;;;17.40;;
83747;SDS011;73737;52.364;17.120;2024-03-06T02:28:54;28.70;;;17.50;;
83747;SDS011;73737;52.364;17.120;2024-03-06T02:31:24;29.10;;;17.60;;
83747;SDS011;73737;52.364;17.120;2024-03-06T02:33:52;35.20;;;17.10;;
83747;SDS011;73737;52.364;17.120;2024-03-06T02:36:21;32.40;;;16.60;;
83747;SDS011;73737;52.364;17.120;2024-03-06T02:38:50;32.40;;;16.90;;
83747;SDS011;73737;52.364;17.120;2024-03-06T02:41:18;33.00;;;17.30;;
83747;SDS011;73737;52.364;17.120;2024-03-06T02:43:47;34.20;;;18.80;;
83747;SDS011;73737;52.364;17.120;2024-03-06T02:46:15;39.60;;;19.90;;
83747;SDS011;73737;52.364;17.120;2024-03-06T02:48:44;44.70;;;23.40;;
83747;SDS011;73737;52.364;17.120;2024-03-06T02:51:17;48.30;;;23.50;;
83747;SDS011;73737;52.364;17.120;2024-03-06T02:53:47;46.40;;;24.00;;
83747;SDS011;73737;52.364;17.120;2024-03-06T02:56:17;47.00;;;25.20;;
83747;SDS011;73737;52.364;17.120;2024-03-06T02:58:46;40.60;;;21.50;;
83747;SDS011;73737;52.364;17.120;2024-03-06T03:01:15;41.40;;;19.70;;
83747;SDS011;73737;52.364;17.120;2024-03-06T03:03:43;44.50;;;21.40;;
83747;SDS011;73737;52.364;17.120;2024-03-06T03:06:12;36.60;;;20.00;;
83747;SDS011;73737;52.364;17.120;2024-03-06T03:08:41;42.30;;;20.70;;
83747;SDS011;73737;52.364;17.120;2024-03-06T03:11:10;38.90;;;21.00;;
83747;SDS011;73737;52.364;17.120;2024-03-06T03:13:38;37.50;;;19.60;;
83747;SDS011;73737;52.364;17.120;2024-03-06T03:16:15;38.70;;;21.90;;
83747;SDS011;73737;52.364;17.120;2024-03-06T03:18:45;39.30;;;20.90;;
83747;SDS011;73737;52.364;17.120;2024-03-06T03:21:15;36.60;;;18.50;;
83747;SDS011;73737;52.364;17.120;2024-03-06T03:23:44;41.40;;;21.40;;
83747;SDS011;73737;52.364;17.120;2024-03-06T03:26:12;36.90;;;18.80;;
83747;SDS011;73737;52.364;17.120;2024-03-06T03:28:41;29.90;;;15.80;;
83747;SDS011;73737;52.364;17.120;2024-03-06T03:31:11;30.20;;;16.00;;
83747;SDS011;73737;52.364;17.120;2024-03-06T03:33:40;33.70;;;19.10;;
83747;SDS011;73737;52.364;17.120;2024-03-06T03:36:09;26.90;;;15.70;;
83747;SDS011;73737;52.364;17.120;2024-03-06T03:38:38;36.20;;;19.40;;
83747;SDS011;73737;52.364;17.120;2024-03-06T03:41:09;36.10;;;17.00;;
83747;SDS011;73737;52.364;17.120;2024-03-06T03:43:41;34.00;;;18.00;;
83747;SDS011;73737;52.364;17.120;2024-03-06T03:46:09;36.50;;;20.80;;
83747;SDS011;73737;52.364;17.120;2024-03-06T03:48:38;38.20;;;20.20;;
83747;SDS011;73737;52.364;17.120;2024-03-06T03:51:07;35.90;;;19.00;;
83747;SDS011;73737;52.364;17.120;2024-03-06T03:53:36;35.60;;;19.40;;
83747;SDS011;73737;52.364;17.120;2024-03-06T03:56:05;33.90;;;18.20;;
83747;SDS011;73737;52.364;17.120;2024-03-06T03:58:34;33.60;;;17.80;;
83747;SDS011;73737;52.364;17.120;2024-03-06T04:01:03;31.60;;;17.80;;
83747;SDS011;73737;52.364;17.120;2024-03-06T04:03:32;31.20;;;16.10;;
83747;SDS011;73737;52.364;17.120;2024-03-06T04:06:01;27.00;;;14.90;;
83747;SDS011;73737;52.364;17.120;2024-03-06T04:08:30;28.30;;;15.90;;
83747;SDS011;73737;52.364;17.120;2024-03-06T04:10:58;28.70;;;15.60;;
83747;SDS011;73737;52.364;17.120;2024-03-06T04:13:27;28.90;;;15.60;;
83747;SDS011;73737;52.364;17.120;2024-03-06T04:15:56;27.70;;;17.20;;
83747;SDS011;73737;52.364;17.120;2024-03-06T04:18:24;22.30;;;12.60;;
83747;SDS011;73737;52.364;17.120;2024-03-06T04:20:53;28.40;;;16.20;;
83747;SDS011;73737;52.364;17.120;2024-03-06T04:23:21;30.00;;;17.00;;
83747;SDS011;73737;52.364;17.120;2024-03-06T04:25:50;33.80;;;16.50;;
83747;SDS011;73737;52.364;17.120;2024-03-06T04:28:18;34.30;;;16.40;;
83747;SDS011;73737;52.364;17.120;2024-03-06T04:30:47;29.10;;;16.30;;
83747;SDS011;73737;52.364;17.120;2024-03-06T04:33:15;32.00;;;17.40;;
83747;SDS011;73737;52.364;17.120;2024-03-06T04:35:44;31.60;;;16.50;;
83747;SDS011;73737;52.364;17.120;2024-03-06T04:38:13;28.10;;;17.10;;
83747;SDS011;73737;52.364;17.120;2024-03-06T04:40:41;31.20;;;16.50;;
83747;SDS011;73737;52.364;17.120;2024-03-06T04:43:10;29.40;;;15.30;;
83747;SDS011;73737;52.364;17.120;2024-03-06T04:45:39;27.50;;;16.00;;
83747;SDS011;73737;52.364;17.120;2024-03-06T04:48:07;28.30;;;15.20;;
83747;SDS011;73737;52.364;17.120;2024-03-06T04:50:36;25.80;;;13.90;;
83747;SDS011;73737;52.364;17.120;2024-03-06T04:53:05;27.30;;;14.20;;
83747;SDS011;73737;52.364;17.120;2024-03-06T04:55:33;26.30;;;15.70;;
83747;SDS011;73737;52.364;17.120;2024-03-06T04:58:05;29.70;;;15.30;;
83747;SDS011;73737;52.364;17.120;2024-03-06T05:00:34;26.60;;;15.30;;
83747;SDS011;73737;52.364;17.120;2024-03-06T05:03:02;26.90;;;14.40;;
83747;SDS011;73737;52.364;17.120;2024-03-06T05:05:31;26.10;;;14.90;;
83747;SDS011;73737;52.364;17.120;2024-03-06T05:08:00;25.40;;;14.30;;
83747;SDS011;73737;52.364;17.120;2024-03-06T05:10:29;24.50;;;13.60;;
83747;SDS011;73737;52.364;17.120;2024-03-06T05:12:58;29.80;;;15.30;;
83747;SDS011;73737;52.364;17.120;2024-03-06T05:15:26;30.40;;;15.00;;
83747;SDS011;73737;52.364;17.120;2024-03-06T05:17:55;31.60;;;14.40;;
83747;SDS011;73737;52.364;17.120;2024-03-06T05:20:24;26.80;;;16.30;;
83747;SDS011;73737;52.364;17.120;2024-03-06T05:22:53;24.50;;;13.80;;
83747;SDS011;73737;52.364;17.120;2024-03-06T05:25:21;30.10;;;15.90;;
83747;SDS011;73737;52.364;17.120;2024-03-06T05:27:50;29.30;;;14.70;;
83747;SDS011;73737;52.364;17.120;2024-03-06T05:30:18;38.80;;;15.90;;
83747;SDS011;73737;52.364;17.120;2024-03-06T05:32:47;34.50;;;17.10;;
83747;SDS011;73737;52.364;17.120;2024-03-06T05:35:15;38.80;;;16.10;;
83747;SDS011;73737;52.364;17.120;2024-03-06T05:37:44;35.00;;;15.70;;
83747;SDS011;73737;52.364;17.120;2024-03-06T05:40:12;40.70;;;17.40;;
83747;SDS011;73737;52.364;17.120;2024-03-06T05:42:41;43.10;;;19.10;;
83747;SDS011;73737;52.364;17.120;2024-03-06T05:45:11;41.50;;;18.30;;
83747;SDS011;73737;52.364;17.120;2024-03-06T05:47:40;51.50;;;19.80;;
83747;SDS011;73737;52.364;17.120;2024-03-06T05:50:09;41.60;;;18.40;;
83747;SDS011;73737;52.364;17.120;2024-03-06T05:52:38;32.80;;;16.80;;
83747;SDS011;73737;52.364;17.120;2024-03-06T05:55:07;31.30;;;15.20;;
83747;SDS011;73737;52.364;17.120;2024-03-06T05:57:36;34.00;;;14.50;;
83747;SDS011;73737;52.364;17.120;2024-03-06T06:00:04;39.00;;;18.10;;
83747;SDS011;73737;52.364;17.120;2024-03-06T06:02:39;47.20;;;19.10;;
83747;SDS011;73737;52.364;17.120;2024-03-06T06:05:08;36.70;;;19.00;;
83747;SDS011;73737;52.364;17.120;2024-03-06T06:07:37;30.30;;;16.60;;
83747;SDS011;73737;52.364;17.120;2024-03-06T06:10:06;36.60;;;18.40;;
83747;SDS011;73737;52.364;17.120;2024-03-06T06:12:38;28.30;;;15.30;;
83747;SDS011;73737;52.364;17.120;2024-03-06T06:15:06;29.00;;;16.90;;
83747;SDS011;73737;52.364;17.120;2024-03-06T06:17:36;31.70;;;17.10;;
83747;SDS011;73737;52.364;17.120;2024-03-06T06:20:06;31.50;;;16.40;;
83747;SDS011;73737;52.364;17.120;2024-03-06T06:22:37;28.80;;;15.70;;
83747;SDS011;73737;52.364;17.120;2024-03-06T06:25:06;30.40;;;15.90;;
83747;SDS011;73737;52.364;17.120;2024-03-06T06:27:35;27.20;;;16.10;;
83747;SDS011;73737;52.364;17.120;2024-03-06T06:30:04;28.80;;;16.80;;
83747;SDS011;73737;52.364;17.120;2024-03-06T06:32:33;29.00;;;16.40;;
83747;SDS011;73737;52.364;17.120;2024-03-06T06:35:02;26.90;;;15.90;;
83747;SDS011;73737;52.364;17.120;2024-03-06T06:37:32;25.00;;;15.80;;
83747;SDS011;73737;52.364;17.120;2024-03-06T06:40:02;26.20;;;16.20;;
83747;SDS011;73737;52.364;17.120;2024-03-06T06:42:35;27.00;;;16.50;;
83747;SDS011;73737;52.364;17.120;2024-03-06T06:45:04;29.90;;;16.30;;
83747;SDS011;73737;52.364;17.120;2024-03-06T06:47:37;26.30;;;15.70;;
83747;SDS011;73737;52.364;17.120;2024-03-06T06:50:07;29.40;;;17.80;;
83747;SDS011;73737;52.364;17.120;2024-03-06T06:52:37;26.70;;;15.10;;
83747;SDS011;73737;52.364;17.120;2024-03-06T06:55:07;31.50;;;18.60;;
83747;SDS011;73737;52.364;17.120;2024-03-06T06:57:39;40.70;;;21.50;;
83747;SDS011;73737;52.364;17.120;2024-03-06T07:00:08;48.20;;;24.50;;
83747;SDS011;73737;52.364;17.120;2024-03-06T07:02:40;53.80;;;27.20;;
83747;SDS011;73737;52.364;17.120;2024-03-06T07:05:11;58.00;;;29.60;;
83747;SDS011;73737;52.364;17.120;2024-03-06T07:07:40;47.90;;;26.10;;
83747;SDS011;73737;52.364;17.120;2024-03-06T07:10:08;62.30;;;33.50;;
83747;SDS011;73737;52.364;17.120;2024-03-06T07:12:37;58.40;;;27.60;;
83747;SDS011;73737;52.364;17.120;2024-03-06T07:15:06;63.70;;;32.80;;
83747;SDS011;73737;52.364;17.120;2024-03-06T07:17:35;55.40;;;28.90;;
83747;SDS011;73737;52.364;17.120;2024-03-06T07:20:03;70.50;;;32.30;;
83747;SDS011;73737;52.364;17.120;2024-03-06T07:22:37;68.90;;;34.30;;
83747;SDS011;73737;52.364;17.120;2024-03-06T07:25:05;67.50;;;34.30;;
83747;SDS011;73737;52.364;17.120;2024-03-06T07:27:34;68.80;;;32.70;;
83747;SDS011;73737;52.364;17.120;2024-03-06T07:30:03;64.80;;;33.70;;
83747;SDS011;73737;52.364;17.120;2024-03-06T07:32:34;64.10;;;31.70;;
83747;SDS011;73737;52.364;17.120;2024-03-06T07:35:02;67.90;;;32.90;;
83747;SDS011;73737;52.364;17.120;2024-03-06T07:37:31;69.40;;;32.60;;
83747;SDS011;73737;52.364;17.120;2024-03-06T07:40:01;69.20;;;34.60;;
83747;SDS011;73737;52.364;17.120;2024-03-06T07:42:31;63.10;;;32.10;;
83747;SDS011;73737;52.364;17.120;2024-03-06T07:45:01;72.90;;;34.30;;
83747;SDS011;73737;52.364;17.120;2024-03-06T07:47:30;71.40;;;33.60;;
83747;SDS011;73737;52.364;17.120;2024-03-06T07:49:59;72.80;;;32.10;;
83747;SDS011;73737;52.364;17.120;2024-03-06T07:52:27;76.00;;;34.20;;
83747;SDS011;73737;52.364;17.120;2024-03-06T07:54:53;65.00;;;36.20;;
83747;SDS011;73737;52.364;17.120;2024-03-06T07:57:20;66.20;;;33.20;;
83747;SDS011;73737;52.364;17.120;2024-03-06T07:59:49;65.70;;;33.80;;
83747;SDS011;73737;52.364;17.120;2024-03-06T08:02:17;68.50;;;31.70;;
83747;SDS011;73737;52.364;17.120;2024-03-06T08:04:44;70.60;;;31.30;;
83747;SDS011;73737;52.364;17.120;2024-03-06T08:07:10;55.50;;;27.20;;
83747;SDS011;73737;52.364;17.120;2024-03-06T08:09:36;60.70;;;31.60;;
83747;SDS011;73737;52.364;17.120;2024-03-06T08:12:03;61.90;;;31.90;;
83747;SDS011;73737;52.364;17.120;2024-03-06T08:16:55;53.70;;;28.20;;
83747;SDS011;73737;52.364;17.120;2024-03-06T08:19:23;38.00;;;20.10;;
83747;SDS011;73737;52.364;17.120;2024-03-06T08:21:51;33.70;;;16.40;;
83747;SDS011;73737;52.364;17.120;2024-03-06T08:24:17;37.60;;;18.30;;
83747;SDS011;73737;52.364;17.120;2024-03-06T08:26:43;42.90;;;23.10;;
83747;SDS011;73737;52.364;17.120;2024-03-06T08:29:10;39.60;;;20.90;;
83747;SDS011;73737;52.364;17.120;2024-03-06T08:31:36;41.70;;;21.50;;
83747;SDS011;73737;52.364;17.120;2024-03-06T08:34:03;37.60;;;19.80;;
83747;SDS011;73737;52.364;17.120;2024-03-06T08:36:29;36.70;;;19.00;;
83747;SDS011;73737;52.364;17.120;2024-03-06T08:38:56;33.10;;;14.10;;
83747;SDS011;73737;52.364;17.120;2024-03-06T08:41:22;41.40;;;22.40;;
83747;SDS011;73737;52.364;17.120;2024-03-06T08:43:49;23.70;;;12.90;;
83747;SDS011;73737;52.364;17.120;2024-03-06T08:46:16;30.00;;;15.50;;
83747;SDS011;73737;52.364;17.120;2024-03-06T08:48:42;35.70;;;20.60;;
83747;SDS011;73737;52.364;17.120;2024-03-06T08:51:09;39.20;;;19.20;;
83747;SDS011;73737;52.364;17.120;2024-03-06T08:53:37;39.80;;;21.10;;
83747;SDS011;73737;52.364;17.120;2024-03-06T08:56:04;16.80;;;9.20;;
83747;SDS011;73737;52.364;17.120;2024-03-06T08:58:32;36.60;;;19.00;;
83747;SDS011;73737;52.364;17.120;2024-03-06T09:00:58;18.60;;;9.80;;
83747;SDS011;73737;52.364;17.120;2024-03-06T09:03:25;31.20;;;17.20;;
83747;SDS011;73737;52.364;17.120;2024-03-06T09:05:51;34.50;;;18.60;;
83747;SDS011;73737;52.364;17.120;2024-03-06T09:08:18;31.20;;;17.00;;
83747;SDS011;73737;52.364;17.120;2024-03-06T09:10:44;36.40;;;19.60;;
83747;SDS011;73737;52.364;17.120;2024-03-06T09:15:37;31.80;;;15.10;;
83747;SDS011;73737;52.364;17.120;2024-03-06T09:18:04;25.10;;;11.50;;
83747;SDS011;73737;52.364;17.120;2024-03-06T09:20:32;27.10;;;13.50;;
83747;SDS011;73737;52.364;17.120;2024-03-06T09:22:58;40.30;;;22.10;;
83747;SDS011;73737;52.364;17.120;2024-03-06T09:25:26;34.90;;;17.90;;
83747;SDS011;73737;52.364;17.120;2024-03-06T09:27:52;36.80;;;18.00;;
83747;SDS011;73737;52.364;17.120;2024-03-06T09:30:19;36.70;;;18.50;;
83747;SDS011;73737;52.364;17.120;2024-03-06T09:32:46;35.30;;;16.70;;
83747;SDS011;73737;52.364;17.120;2024-03-06T09:35:12;45.40;;;19.70;;
83747;SDS011;73737;52.364;17.120;2024-03-06T09:37:40;44.00;;;21.00;;
83747;SDS011;73737;52.364;17.120;2024-03-06T09:40:09;45.30;;;20.20;;
83747;SDS011;73737;52.364;17.120;2024-03-06T09:42:36;42.70;;;20.80;;
83747;SDS011;73737;52.364;17.120;2024-03-06T09:45:02;40.10;;;21.20;;
83747;SDS011;73737;52.364;17.120;2024-03-06T09:47:29;29.30;;;15.10;;
83747;SDS011;73737;52.364;17.120;2024-03-06T09:49:58;34.50;;;16.70;;
83747;SDS011;73737;52.364;17.120;2024-03-06T09:52:25;31.80;;;15.60;;
83747;SDS011;73737;52.364;17.120;2024-03-06T09:54:53;33.40;;;14.60;;
83747;SDS011;73737;52.364;17.120;2024-03-06T09:57:20;38.40;;;17.40;;
83747;SDS011;73737;52.364;17.120;2024-03-06T09:59:46;28.60;;;14.80;;
83747;SDS011;73737;52.364;17.120;2024-03-06T10:02:28;32.40;;;17.00;;
83747;SDS011;73737;52.364;17.120;2024-03-06T10:04:57;40.60;;;20.40;;
83747;SDS011;73737;52.364;17.120;2024-03-06T10:07:24;30.50;;;15.00;;
83747;SDS011;73737;52.364;17.120;2024-03-06T10:09:53;40.00;;;19.70;;
83747;SDS011;73737;52.364;17.120;2024-03-06T10:12:19;30.40;;;15.40;;
83747;SDS011;73737;52.364;17.120;2024-03-06T10:14:50;34.70;;;17.90;;
83747;SDS011;73737;52.364;17.120;2024-03-06T10:17:20;29.30;;;12.80;;
83747;SDS011;73737;52.364;17.120;2024-03-06T10:19:52;37.70;;;18.80;;
83747;SDS011;73737;52.364;17.120;2024-03-06T10:22:19;43.70;;;22.40;;
83747;SDS011;73737;52.364;17.120;2024-03-06T10:24:46;45.10;;;20.30;;
83747;SDS011;73737;52.364;17.120;2024-03-06T10:27:16;35.40;;;17.80;;
83747;SDS011;73737;52.364;17.120;2024-03-06T10:29:45;38.40;;;18.70;;
83747;SDS011;73737;52.364;17.120;2024-03-06T10:32:15;41.40;;;21.30;;
83747;SDS011;73737;52.364;17.120;2024-03-06T10:34:44;46.30;;;23.80;;
83747;SDS011;73737;52.364;17.120;2024-03-06T10:37:11;52.00;;;22.70;;
83747;SDS011;73737;52.364;17.120;2024-03-06T10:39:38;40.20;;;19.70;;
83747;SDS011;73737;52.364;17.120;2024-03-06T10:42:08;40.30;;;20.20;;
83747;SDS011;73737;52.364;17.120;2024-03-06T10:44:38;43.20;;;20.80;;
83747;SDS011;73737;52.364;17.120;2024-03-06T10:47:19;47.40;;;22.60;;
83747;SDS011;73737;52.364;17.120;2024-03-06T10:49:46;47.80;;;22.60;;
83747;SDS011;73737;52.364;17.120;2024-03-06T10:52:13;47.10;;;23.10;;
83747;SDS011;73737;52.364;17.120;2024-03-06T10:54:42;54.50;;;23.40;;
83747;SDS011;73737;52.364;17.120;2024-03-06T10:57:09;48.40;;;23.90;;
83747;SDS011;73737;52.364;17.120;2024-03-06T10:59:36;41.40;;;21.50;;
83747;SDS011;73737;52.364;17.120;2024-03-06T11:02:03;45.10;;;19.10;;
83747;SDS011;73737;52.364;17.120;2024-03-06T11:07:00;44.30;;;20.90;;
83747;SDS011;73737;52.364;17.120;2024-03-06T11:09:28;43.00;;;20.60;;
83747;SDS011;73737;52.364;17.120;2024-03-06T11:12:01;36.20;;;18.50;;
83747;SDS011;73737;52.364;17.120;2024-03-06T11:14:33;46.10;;;21.90;;
83747;SDS011;73737;52.364;17.120;2024-03-06T11:17:53;50.40;;;24.00;;
83747;SDS011;73737;52.364;17.120;2024-03-06T11:20:21;39.00;;;19.50;;
83747;SDS011;73737;52.364;17.120;2024-03-06T11:28:15;44.90;;;21.80;;
83747;SDS011;73737;52.364;17.120;2024-03-06T11:30:44;38.80;;;15.90;;
83747;SDS011;73737;52.364;17.120;2024-03-06T11:33:16;37.80;;;17.40;;
83747;SDS011;73737;52.364;17.120;2024-03-06T11:36:05;40.00;;;18.00;;
83747;SDS011;73737;52.364;17.120;2024-03-06T11:39:06;39.50;;;19.30;;
83747;SDS011;73737;52.364;17.120;2024-03-06T11:44:18;29.90;;;13.10;;
83747;SDS011;73737;52.364;17.120;2024-03-06T11:46:59;28.90;;;12.30;;
83747;SDS011;73737;52.364;17.120;2024-03-06T11:49:30;49.00;;;21.40;;
83747;SDS011;73737;52.364;17.120;2024-03-06T11:52:01;50.30;;;24.60;;
83747;SDS011;73737;52.364;17.120;2024-03-06T11:54:29;53.90;;;25.60;;
83747;SDS011;73737;52.364;17.120;2024-03-06T11:56:57;45.70;;;20.70;;
83747;SDS011;73737;52.364;17.120;2024-03-06T11:59:25;46.70;;;23.80;;
83747;SDS011;73737;52.364;17.120;2024-03-06T12:01:53;46.80;;;21.70;;
83747;SDS011;73737;52.364;17.120;2024-03-06T12:04:24;29.00;;;12.20;;
83747;SDS011;73737;52.364;17.120;2024-03-06T12:06:50;43.20;;;20.30;;
83747;SDS011;73737;52.364;17.120;2024-03-06T12:09:17;36.00;;;17.70;;
83747;SDS011;73737;52.364;17.120;2024-03-06T12:11:43;21.90;;;10.40;;
83747;SDS011;73737;52.364;17.120;2024-03-06T12:14:19;26.10;;;12.70;;
83747;SDS011;73737;52.364;17.120;2024-03-06T12:16:56;49.90;;;21.60;;
83747;SDS011;73737;52.364;17.120;2024-03-06T12:19:27;26.10;;;12.30;;
83747;SDS011;73737;52.364;17.120;2024-03-06T12:21:54;27.20;;;12.10;;
83747;SDS011;73737;52.364;17.120;2024-03-06T12:24:20;47.20;;;21.20;;
83747;SDS011;73737;52.364;17.120;2024-03-06T12:26:57;39.20;;;17.40;;
83747;SDS011;73737;52.364;17.120;2024-03-06T12:29:28;46.90;;;22.20;;
83747;SDS011;73737;52.364;17.120;2024-03-06T12:31:58;36.20;;;16.20;;
83747;SDS011;73737;52.364;17.120;2024-03-06T12:34:25;30.40;;;13.90;;
83747;SDS011;73737;52.364;17.120;2024-03-06T12:36:52;38.20;;;18.60;;
83747;SDS011;73737;52.364;17.120;2024-03-06T12:39:18;44.00;;;19.90;;
83747;SDS011;73737;52.364;17.120;2024-03-06T12:41:51;36.00;;;17.00;;
83747;SDS011;73737;52.364;17.120;2024-03-06T12:44:21;49.40;;;23.40;;
83747;SDS011;73737;52.364;17.120;2024-03-06T12:46:48;37.90;;;18.00;;
83747;SDS011;73737;52.364;17.120;2024-03-06T12:49:15;46.80;;;22.30;;
83747;SDS011;73737;52.364;17.120;2024-03-06T12:51:42;38.70;;;18.20;;
83747;SDS011;73737;52.364;17.120;2024-03-06T12:54:08;45.50;;;22.80;;
83747;SDS011;73737;52.364;17.120;2024-03-06T12:56:34;42.30;;;19.00;;
83747;SDS011;73737;52.364;17.120;2024-03-06T12:59:02;33.10;;;16.50;;
83747;SDS011;73737;52.364;17.120;2024-03-06T13:01:28;45.10;;;20.70;;
83747;SDS011;73737;52.364;17.120;2024-03-06T13:03:56;41.70;;;20.60;;
83747;SDS011;73737;52.364;17.120;2024-03-06T13:06:23;41.40;;;19.80;;
83747;SDS011;73737;52.364;17.120;2024-03-06T13:08:49;34.30;;;15.80;;
83747;SDS011;73737;52.364;17.120;2024-03-06T13:11:15;49.40;;;23.00;;
83747;SDS011;73737;52.364;17.120;2024-03-06T13:13:42;45.40;;;22.50;;
83747;SDS011;73737;52.364;17.120;2024-03-06T13:16:08;48.60;;;22.10;;
83747;SDS011;73737;52.364;17.120;2024-03-06T13:18:36;50.00;;;23.40;;
83747;SDS011;73737;52.364;17.120;2024-03-06T13:21:03;45.50;;;22.90;;
83747;SDS011;73737;52.364;17.120;2024-03-06T13:23:29;53.10;;;25.10;;
83747;SDS011;73737;52.364;17.120;2024-03-06T13:25:56;23.20;;;11.40;;
83747;SDS011;73737;52.364;17.120;2024-03-06T13:28:24;46.70;;;22.00;;
83747;SDS011;73737;52.364;17.120;2024-03-06T13:30:51;30.10;;;14.30;;
83747;SDS011;73737;52.364;17.120;2024-03-06T13:33:17;53.40;;;23.90;;
83747;SDS011;73737;52.364;17.120;2024-03-06T13:35:44;50.80;;;21.80;;
83747;SDS011;73737;52.364;17.120;2024-03-06T13:38:11;39.80;;;17.30;;
83747;SDS011;73737;52.364;17.120;2024-03-06T13:40:40;57.60;;;25.10;;
83747;SDS011;73737;52.364;17.120;2024-03-06T13:45:34;58.00;;;24.10;;
83747;SDS011;73737;52.364;17.120;2024-03-06T13:48:02;57.20;;;25.00;;
83747;SDS011;73737;52.364;17.120;2024-03-06T13:50:46;59.10;;;27.40;;
83747;SDS011;73737;52.364;17.120;2024-03-06T13:53:12;63.10;;;26.30;;
83747;SDS011;73737;52.364;17.120;2024-03-06T13:55:44;66.50;;;25.80;;
83747;SDS011;73737;52.364;17.120;2024-03-06T13:58:11;53.90;;;24.50;;
83747;SDS011;73737;52.364;17.120;2024-03-06T14:00:38;54.10;;;23.90;;
83747;SDS011;73737;52.364;17.120;2024-03-06T14:05:38;53.80;;;24.80;;
83747;SDS011;73737;52.364;17.120;2024-03-06T14:08:05;60.30;;;25.30;;
83747;SDS011;73737;52.364;17.120;2024-03-06T14:10:33;54.90;;;22.80;;
83747;SDS011;73737;52.364;17.120;2024-03-06T14:13:00;56.80;;;25.10;;
83747;SDS011;73737;52.364;17.120;2024-03-06T14:15:27;60.80;;;26.80;;
83747;SDS011;73737;52.364;17.120;2024-03-06T14:17:57;56.80;;;26.30;;
83747;SDS011;73737;52.364;17.120;2024-03-06T14:20:23;55.30;;;23.10;;
83747;SDS011;73737;52.364;17.120;2024-03-06T14:25:17;53.90;;;25.00;;
83747;SDS011;73737;52.364;17.120;2024-03-06T14:27:46;48.80;;;23.50;;
83747;SDS011;73737;52.364;17.120;2024-03-06T14:30:13;50.10;;;23.50;;
83747;SDS011;73737;52.364;17.120;2024-03-06T14:32:41;51.10;;;23.90;;
83747;SDS011;73737;52.364;17.120;2024-03-06T14:37:35;51.20;;;24.00;;
83747;SDS011;73737;52.364;17.120;2024-03-06T14:40:02;49.30;;;22.40;;
83747;SDS011;73737;52.364;17.120;2024-03-06T14:42:34;43.50;;;21.50;;
83747;SDS011;73737;52.364;17.120;2024-03-06T14:45:03;47.50;;;23.00;;
83747;SDS011;73737;52.364;17.120;2024-03-06T14:47:48;43.30;;;21.70;;
83747;SDS011;73737;52.364;17.120;2024-03-06T14:50:15;49.60;;;22.10;;
83747;SDS011;73737;52.364;17.120;2024-03-06T14:52:42;43.70;;;22.10;;
83747;SDS011;73737;52.364;17.120;2024-03-06T14:55:09;44.50;;;23.80;;
83747;SDS011;73737;52.364;17.120;2024-03-06T14:57:36;51.50;;;23.70;;
83747;SDS011;73737;52.364;17.120;2024-03-06T15:00:36;54.20;;;25.70;;
83747;SDS011;73737;52.364;17.120;2024-03-06T15:03:04;51.10;;;24.30;;
83747;SDS011;73737;52.364;17.120;2024-03-06T15:05:30;43.80;;;23.70;;
83747;SDS011;73737;52.364;17.120;2024-03-06T15:07:58;55.40;;;26.00;;
83747;SDS011;73737;52.364;17.120;2024-03-06T15:10:25;49.10;;;23.50;;
83747;SDS011;73737;52.364;17.120;2024-03-06T15:12:51;47.90;;;22.40;;
83747;SDS011;73737;52.364;17.120;2024-03-06T15:15:18;47.90;;;23.50;;